createdAt,value
2017-11-16T00:00:01.482Z,38.97
2017-11-16T00:02:28.399Z,39.30
2017-11-16T00:04:56.822Z,41.00
2017-11-16T00:07:23.681Z,34.75
2017-11-16T00:09:50.897Z,37.08
2017-11-16T00:12:18.049Z,35.57
2017-11-16T00:14:44.910Z,34.20
2017-11-16T00:17:12.040Z,41.05
2017-11-16T00:19:38.906Z,40.65
2017-11-16T00:22:05.737Z,35.70
2017-11-16T00:24:32.659Z,36.30
2017-11-16T00:26:59.446Z,34.40
2017-11-16T00:29:26.239Z,32.80
2017-11-16T00:31:53.404Z,33.03
2017-11-16T00:34:20.316Z,32.77
2017-11-16T00:36:47.112Z,37.53
2017-11-16T00:39:14.151Z,33.97
2017-11-16T00:41:40.948Z,32.90
2017-11-16T00:44:08.027Z,31.27
2017-11-16T00:46:34.838Z,30.52
2017-11-16T00:49:01.636Z,31.80
2017-11-16T00:51:28.467Z,30.88
2017-11-16T00:53:55.315Z,31.12
2017-11-16T00:56:22.107Z,30.45
2017-11-16T00:58:48.955Z,29.02
2017-11-16T01:01:16.028Z,28.70
2017-11-16T01:03:42.831Z,30.73
2017-11-16T01:06:09.654Z,31.67
2017-11-16T01:08:36.443Z,30.00
2017-11-16T01:11:03.497Z,30.98
2017-11-16T01:13:30.348Z,32.13
2017-11-16T01:15:57.496Z,29.70
2017-11-16T01:18:24.642Z,31.40
2017-11-16T01:20:51.469Z,30.20
2017-11-16T01:23:18.536Z,28.57
2017-11-16T01:25:45.382Z,29.52
2017-11-16T01:28:12.205Z,28.60
2017-11-16T01:30:38.995Z,31.05
2017-11-16T01:33:05.831Z,30.88
2017-11-16T01:35:32.677Z,31.83
2017-11-16T01:37:59.507Z,29.75
2017-11-16T01:40:26.303Z,29.50
2017-11-16T01:42:53.379Z,30.73
2017-11-16T01:45:20.203Z,28.75
2017-11-16T01:47:47.048Z,28.42
2017-11-16T01:50:14.120Z,28.63
2017-11-16T01:52:41.263Z,29.00
2017-11-16T01:55:08.312Z,27.70
2017-11-16T01:57:35.200Z,28.12
2017-11-16T02:00:02.609Z,28.33
2017-11-16T02:02:35.369Z,28.38
2017-11-16T02:05:02.179Z,29.55
2017-11-16T02:07:29.020Z,29.35
2017-11-16T02:09:56.137Z,29.17
2017-11-16T02:12:23.013Z,30.70
2017-11-16T02:14:49.844Z,30.30
2017-11-16T02:17:16.634Z,27.23
2017-11-16T02:19:43.476Z,28.25
2017-11-16T02:22:10.312Z,29.00
2017-11-16T02:24:37.193Z,31.33
2017-11-16T02:27:04.004Z,30.00
2017-11-16T02:29:31.094Z,30.52
2017-11-16T02:31:57.957Z,33.63
2017-11-16T02:34:25.036Z,32.45
2017-11-16T02:36:51.876Z,31.90
2017-11-16T02:39:18.740Z,32.92
2017-11-16T02:41:45.581Z,35.00
2017-11-16T02:44:12.756Z,35.10
2017-11-16T02:46:39.599Z,37.35
2017-11-16T02:49:06.413Z,39.35
2017-11-16T02:51:33.267Z,41.20
2017-11-16T02:54:00.126Z,40.65
2017-11-16T02:56:27.174Z,41.10
2017-11-16T02:58:54.087Z,41.08
2017-11-16T03:01:20.882Z,41.42
2017-11-16T03:03:47.764Z,50.75
2017-11-16T03:06:14.566Z,41.58
2017-11-16T03:08:41.695Z,39.70
2017-11-16T03:11:08.495Z,40.70
2017-11-16T03:13:35.346Z,41.90
2017-11-16T03:16:02.180Z,36.67
2017-11-16T03:18:29.020Z,38.88
2017-11-16T03:20:56.118Z,35.60
2017-11-16T03:23:22.940Z,38.73
2017-11-16T03:25:49.768Z,35.60
2017-11-16T03:28:16.583Z,44.83
2017-11-16T03:30:43.406Z,38.67
2017-11-16T03:33:10.211Z,35.30
2017-11-16T03:35:37.110Z,43.13
2017-11-16T03:38:04.222Z,39.70
2017-11-16T03:40:31.076Z,63.03
2017-11-16T03:42:58.115Z,39.85
2017-11-16T03:45:24.983Z,38.33
2017-11-16T03:47:52.106Z,37.72
2017-11-16T03:50:19.618Z,35.90
2017-11-16T03:52:46.472Z,33.72
2017-11-16T03:55:13.294Z,36.63
2017-11-16T03:57:40.143Z,37.40
2017-11-16T04:00:07.009Z,35.47
2017-11-16T04:02:34.096Z,34.47
2017-11-16T04:05:00.968Z,34.00
2017-11-16T04:07:27.764Z,33.35
2017-11-16T04:09:54.613Z,29.67
2017-11-16T04:12:21.772Z,30.15
2017-11-16T04:14:48.636Z,29.70
2017-11-16T04:17:15.468Z,27.83
2017-11-16T04:19:42.305Z,28.95
2017-11-16T04:22:09.149Z,32.50
2017-11-16T04:24:35.990Z,30.92
2017-11-16T04:27:03.142Z,29.83
2017-11-16T04:29:30.182Z,28.27
2017-11-16T04:31:56.995Z,28.62
2017-11-16T04:34:23.844Z,26.73
2017-11-16T04:36:50.685Z,24.02
2017-11-16T04:39:17.759Z,25.23
2017-11-16T04:41:44.912Z,21.10
2017-11-16T04:44:11.698Z,21.60
2017-11-16T04:46:38.799Z,23.10
2017-11-16T04:49:05.598Z,24.20
2017-11-16T04:51:32.463Z,22.65
2017-11-16T04:53:59.292Z,21.33
2017-11-16T04:56:26.483Z,21.87
2017-11-16T04:58:53.308Z,21.20
2017-11-16T05:01:20.151Z,21.07
2017-11-16T05:03:46.972Z,21.92
2017-11-16T05:06:13.811Z,23.90
2017-11-16T05:08:40.648Z,22.55
2017-11-16T05:11:07.489Z,21.62
2017-11-16T05:13:34.302Z,21.73
2017-11-16T05:16:01.098Z,23.67
2017-11-16T05:18:28.176Z,23.60
2017-11-16T05:20:54.991Z,23.85
2017-11-16T05:23:22.063Z,24.97
2017-11-16T05:25:48.904Z,24.52
2017-11-16T05:28:15.742Z,26.57
2017-11-16T05:30:42.590Z,25.92
2017-11-16T05:33:09.427Z,27.25
2017-11-16T05:35:36.275Z,26.08
2017-11-16T05:38:03.327Z,24.33
2017-11-16T05:40:30.232Z,25.17
2017-11-16T05:42:57.432Z,30.25
2017-11-16T05:45:24.231Z,27.03
2017-11-16T05:47:51.064Z,25.98
2017-11-16T05:50:17.879Z,27.13
2017-11-16T05:52:44.999Z,25.62
2017-11-16T05:55:12.152Z,25.30
2017-11-16T05:57:38.943Z,25.02
2017-11-16T06:00:05.735Z,25.80
2017-11-16T06:02:32.616Z,26.52
2017-11-16T06:04:59.453Z,28.67
2017-11-16T06:07:26.267Z,25.65
2017-11-16T06:09:53.104Z,30.60
2017-11-16T06:12:20.151Z,41.63
2017-11-16T06:14:47.308Z,29.60
2017-11-16T06:17:14.468Z,30.85
2017-11-16T06:19:41.308Z,30.00
2017-11-16T06:22:08.350Z,30.90
2017-11-16T06:24:35.151Z,28.95
2017-11-16T06:27:02.344Z,32.10
2017-11-16T06:29:29.164Z,36.95
2017-11-16T06:31:56.335Z,31.05
2017-11-16T06:34:23.380Z,32.13
2017-11-16T06:36:50.194Z,33.28
2017-11-16T06:39:17.276Z,30.52
2017-11-16T06:41:44.429Z,30.70
2017-11-16T06:44:11.215Z,26.83
2017-11-16T06:46:38.316Z,25.25
2017-11-16T06:49:05.358Z,24.63
2017-11-16T06:51:32.411Z,22.00
2017-11-16T06:53:59.199Z,23.20
2017-11-16T06:56:26.305Z,24.73
2017-11-16T06:58:53.100Z,25.00
2017-11-16T07:01:20.265Z,25.50
2017-11-16T07:03:47.097Z,25.60
2017-11-16T07:06:14.192Z,26.50
2017-11-16T07:08:40.980Z,27.30
2017-11-16T07:11:07.795Z,27.47
2017-11-16T07:13:34.918Z,26.10
2017-11-16T07:16:01.727Z,28.73
2017-11-16T07:18:28.812Z,27.55
2017-11-16T07:20:55.633Z,28.00
2017-11-16T07:23:22.708Z,26.02
2017-11-16T07:25:49.562Z,25.73
2017-11-16T07:28:16.392Z,24.55
2017-11-16T07:30:43.544Z,21.75
2017-11-16T07:33:10.692Z,19.60
2017-11-16T07:35:37.477Z,20.10
2017-11-16T07:38:04.316Z,19.60
2017-11-16T07:40:31.102Z,17.65
2017-11-16T07:42:57.972Z,16.37
2017-11-16T07:45:25.003Z,16.15
2017-11-16T07:47:52.159Z,15.93
2017-11-16T07:50:18.956Z,15.10
2017-11-16T07:52:45.771Z,15.40
2017-11-16T07:55:12.903Z,13.98
2017-11-16T07:57:40.044Z,14.50
2017-11-16T08:00:07.205Z,15.67
2017-11-16T08:02:33.987Z,15.40
2017-11-16T08:05:00.800Z,14.80
2017-11-16T08:07:27.667Z,16.30
2017-11-16T08:09:54.445Z,14.95
2017-11-16T08:12:21.298Z,14.40
2017-11-16T08:14:48.129Z,13.80
2017-11-16T08:17:14.972Z,13.88
2017-11-16T08:19:41.758Z,12.90
2017-11-16T08:22:08.588Z,14.83
2017-11-16T08:24:35.395Z,15.30
2017-11-16T08:27:02.220Z,14.93
2017-11-16T08:29:29.308Z,16.80
2017-11-16T08:31:56.363Z,20.02
2017-11-16T08:34:23.408Z,19.20
2017-11-16T08:36:50.210Z,19.57
2017-11-16T08:39:17.040Z,23.20
2017-11-16T08:41:43.877Z,21.25
2017-11-16T08:44:11.002Z,21.45
2017-11-16T08:46:37.843Z,18.35
2017-11-16T08:49:04.664Z,17.40
2017-11-16T08:51:31.517Z,21.45
2017-11-16T08:53:58.669Z,17.10
2017-11-16T08:56:25.524Z,17.23
2017-11-16T08:58:52.359Z,14.57
2017-11-16T09:01:19.200Z,15.90
2017-11-16T09:03:46.022Z,14.45
2017-11-16T09:06:12.864Z,12.37
2017-11-16T09:08:39.659Z,11.90
2017-11-16T09:11:06.466Z,12.00
2017-11-16T09:13:33.313Z,11.60
2017-11-16T09:16:00.457Z,10.52
2017-11-16T09:18:27.503Z,9.25
2017-11-16T09:20:54.550Z,9.60
2017-11-16T09:23:21.354Z,11.47
2017-11-16T09:25:48.212Z,10.73
2017-11-16T09:28:15.746Z,10.40
2017-11-16T09:30:45.934Z,10.75
2017-11-16T09:33:14.953Z,11.30
2017-11-16T09:35:44.609Z,10.35
2017-11-16T09:38:12.939Z,11.18
2017-11-16T09:40:42.368Z,11.40
2017-11-16T09:43:11.642Z,10.63
2017-11-16T09:45:40.265Z,10.67
2017-11-16T09:48:11.348Z,10.65
2017-11-16T09:50:40.951Z,10.65
2017-11-16T09:53:09.286Z,10.75
2017-11-16T09:55:38.349Z,11.00
2017-11-16T09:58:09.660Z,10.13
2017-11-16T10:00:40.191Z,9.70
2017-11-16T10:03:09.602Z,8.90
2017-11-16T10:05:40.265Z,10.18
2017-11-16T10:08:09.702Z,10.43
2017-11-16T10:10:39.265Z,11.20
2017-11-16T10:13:09.153Z,10.17
2017-11-16T10:15:41.105Z,10.53
2017-11-16T10:18:09.646Z,9.50
2017-11-16T10:20:39.618Z,11.75
2017-11-16T10:23:08.598Z,11.90
2017-11-16T10:25:40.149Z,12.48
2017-11-16T10:28:08.919Z,12.75
2017-11-16T10:30:37.804Z,12.68
2017-11-16T10:33:06.015Z,13.35
2017-11-16T10:35:35.632Z,12.10
2017-11-16T10:38:07.319Z,12.15
2017-11-16T10:40:37.251Z,13.10
2017-11-16T10:43:06.669Z,13.73
2017-11-16T10:45:37.898Z,15.10
2017-11-16T10:48:06.151Z,15.90
2017-11-16T10:50:35.060Z,16.67
2017-11-16T10:53:04.750Z,17.03
2017-11-16T10:55:38.430Z,16.77
2017-11-16T10:58:06.408Z,18.20
2017-11-16T11:00:33.528Z,18.00
2017-11-16T11:03:01.232Z,17.92
2017-11-16T11:05:29.420Z,17.50
2017-11-16T11:07:57.989Z,16.75
2017-11-16T11:10:26.272Z,17.70
2017-11-16T11:12:53.999Z,18.50
2017-11-16T11:15:21.557Z,17.77
2017-11-16T11:17:48.961Z,18.15
2017-11-16T11:20:17.415Z,15.20
2017-11-16T11:22:44.957Z,16.58
2017-11-16T11:25:11.912Z,16.92
2017-11-16T11:27:39.053Z,17.02
2017-11-16T11:30:06.916Z,18.10
2017-11-16T11:32:36.627Z,18.60
2017-11-16T11:35:04.642Z,19.10
2017-11-16T11:37:32.561Z,18.95
2017-11-16T11:40:00.579Z,20.17
2017-11-16T11:42:29.334Z,18.37
2017-11-16T11:44:57.568Z,18.77
2017-11-16T11:47:25.151Z,19.92
2017-11-16T11:49:52.395Z,19.00
2017-11-16T11:52:20.661Z,19.00
2017-11-16T11:54:48.310Z,18.75
2017-11-16T11:57:15.794Z,17.55
2017-11-16T11:59:43.874Z,17.83
2017-11-16T12:02:11.672Z,17.60
2017-11-16T12:04:38.565Z,17.95
2017-11-16T12:07:07.138Z,16.85
2017-11-16T12:09:36.675Z,16.23
2017-11-16T12:12:06.175Z,15.90
2017-11-16T12:14:35.174Z,16.60
2017-11-16T12:17:03.745Z,16.10
2017-11-16T12:19:32.540Z,15.35
2017-11-16T12:22:02.092Z,15.20
2017-11-16T12:24:30.086Z,14.97
2017-11-16T12:26:58.349Z,14.63
2017-11-16T12:29:27.500Z,13.50
2017-11-16T12:31:57.206Z,14.20
2017-11-16T12:34:26.046Z,13.90
2017-11-16T12:36:53.657Z,14.13
2017-11-16T12:39:20.549Z,12.98
2017-11-16T12:41:47.435Z,13.25
2017-11-16T12:44:14.626Z,12.23
2017-11-16T12:46:41.776Z,12.95
2017-11-16T12:49:08.649Z,13.40
2017-11-16T12:51:35.525Z,13.10
2017-11-16T12:54:02.394Z,12.60
2017-11-16T12:56:29.509Z,12.07
2017-11-16T12:58:56.600Z,11.77
2017-11-16T13:01:23.459Z,12.30
2017-11-16T13:03:50.602Z,11.82
2017-11-16T13:06:18.173Z,10.77
2017-11-16T13:08:46.701Z,11.32
2017-11-16T13:11:15.371Z,11.05
2017-11-16T13:13:42.862Z,11.27
2017-11-16T13:16:10.097Z,11.27
2017-11-16T13:18:37.903Z,10.95
2017-11-16T13:21:07.244Z,11.48
2017-11-16T13:23:35.901Z,11.10
2017-11-16T13:26:03.651Z,11.05
2017-11-16T13:28:31.268Z,11.40
2017-11-16T13:30:58.961Z,10.67
2017-11-16T13:33:27.577Z,10.80
2017-11-16T13:35:55.104Z,10.90
2017-11-16T13:38:22.931Z,10.40
2017-11-16T13:40:50.458Z,10.88
2017-11-16T13:43:17.878Z,10.93
2017-11-16T13:45:45.787Z,10.77
2017-11-16T13:48:12.960Z,11.00
2017-11-16T13:50:40.349Z,11.38
2017-11-16T13:53:08.524Z,11.40
2017-11-16T13:55:38.242Z,11.02
2017-11-16T13:58:05.942Z,10.38
2017-11-16T14:00:34.102Z,10.80
2017-11-16T14:03:02.236Z,11.23
2017-11-16T14:05:30.784Z,11.23
2017-11-16T14:07:59.192Z,11.30
2017-11-16T14:10:27.052Z,11.27
2017-11-16T14:12:55.781Z,12.02
2017-11-16T14:15:23.766Z,11.43
2017-11-16T14:17:51.879Z,12.15
2017-11-16T14:20:20.339Z,12.43
2017-11-16T14:22:48.269Z,12.88
2017-11-16T14:25:17.666Z,13.20
2017-11-16T14:27:44.674Z,12.73
2017-11-16T14:30:11.558Z,12.02
2017-11-16T14:32:38.430Z,12.88
2017-11-16T14:35:05.518Z,12.40
2017-11-16T14:37:32.721Z,12.43
2017-11-16T14:40:00.587Z,12.73
2017-11-16T14:42:28.017Z,13.48
2017-11-16T14:44:55.056Z,12.97
2017-11-16T14:47:23.595Z,13.93
2017-11-16T14:49:50.613Z,14.30
2017-11-16T14:52:17.470Z,13.80
2017-11-16T14:54:44.367Z,14.15
2017-11-16T14:57:11.227Z,14.80
2017-11-16T14:59:38.078Z,14.02
2017-11-16T15:02:05.143Z,14.53
2017-11-16T15:04:32.014Z,16.87
2017-11-16T15:06:59.146Z,15.07
2017-11-16T15:09:26.010Z,14.70
2017-11-16T15:11:52.836Z,14.20
2017-11-16T15:14:19.690Z,15.10
2017-11-16T15:16:46.524Z,14.60
2017-11-16T15:19:13.613Z,16.10
2017-11-16T15:21:40.714Z,16.35
2017-11-16T15:24:07.594Z,15.50
2017-11-16T15:26:34.701Z,15.70
2017-11-16T15:29:01.522Z,16.92
2017-11-16T15:31:28.369Z,17.37
2017-11-16T15:33:55.233Z,16.77
2017-11-16T15:36:22.103Z,18.55
2017-11-16T15:38:48.935Z,17.27
2017-11-16T15:41:15.813Z,16.95
2017-11-16T15:43:42.693Z,16.85
2017-11-16T15:46:09.857Z,16.70
2017-11-16T15:48:36.678Z,17.12
2017-11-16T15:51:03.544Z,17.60
2017-11-16T15:53:30.621Z,15.70
2017-11-16T15:55:57.472Z,15.30
2017-11-16T15:58:24.296Z,15.70
2017-11-16T16:00:51.113Z,15.13
2017-11-16T16:03:17.978Z,17.55
2017-11-16T16:05:44.842Z,15.00
2017-11-16T16:08:11.720Z,15.20
2017-11-16T16:10:38.545Z,15.63
2017-11-16T16:13:05.365Z,15.05
2017-11-16T16:15:32.200Z,14.90
2017-11-16T16:17:59.054Z,14.90
2017-11-16T16:20:25.934Z,15.32
2017-11-16T16:22:52.790Z,15.07
2017-11-16T16:25:19.613Z,14.95
2017-11-16T16:27:46.523Z,16.85
2017-11-16T16:30:13.784Z,16.12
2017-11-16T16:32:40.703Z,19.12
2017-11-16T16:35:07.567Z,30.83
2017-11-16T16:37:34.476Z,15.93
2017-11-16T16:40:02.076Z,15.63
2017-11-16T16:42:29.220Z,15.48
2017-11-16T16:44:56.884Z,15.80
2017-11-16T16:47:23.791Z,15.33
2017-11-16T16:49:50.676Z,15.83
2017-11-16T16:52:17.807Z,16.05
2017-11-16T16:54:44.959Z,15.67
2017-11-16T16:57:11.838Z,15.48
2017-11-16T16:59:38.723Z,15.77
2017-11-16T17:02:05.619Z,14.70
2017-11-16T17:04:32.529Z,15.07
2017-11-16T17:06:59.406Z,15.95
2017-11-16T17:09:26.295Z,16.12
2017-11-16T17:11:53.166Z,15.10
2017-11-16T17:14:20.079Z,14.70
2017-11-16T17:16:47.251Z,16.45
2017-11-16T17:19:14.417Z,15.40
2017-11-16T17:21:41.368Z,15.70
2017-11-16T17:24:08.226Z,15.33
2017-11-16T17:26:36.838Z,16.05
2017-11-16T17:29:04.397Z,15.80
2017-11-16T17:31:31.890Z,15.45
2017-11-16T17:34:01.689Z,15.23
2017-11-16T17:36:29.048Z,15.30
2017-11-16T17:38:56.830Z,14.73
2017-11-16T17:41:24.481Z,14.65
2017-11-16T17:43:52.733Z,15.38
2017-11-16T17:46:20.406Z,15.53
2017-11-16T17:48:48.444Z,15.32
2017-11-16T17:51:17.718Z,15.75
2017-11-16T17:53:44.980Z,15.02
2017-11-16T17:58:09.462Z,14.80
2017-11-16T18:00:36.374Z,14.95
2017-11-16T18:03:03.560Z,15.30
2017-11-16T18:05:30.706Z,15.73
2017-11-16T18:07:57.631Z,15.00
2017-11-16T18:10:24.502Z,15.40
2017-11-16T18:12:52.070Z,15.70
2017-11-16T18:15:20.247Z,16.12
2017-11-16T18:17:48.965Z,15.23
2017-11-16T18:20:17.095Z,15.65
2017-11-16T18:22:44.764Z,16.40
2017-11-16T18:25:13.137Z,16.30
2017-11-16T18:27:42.801Z,15.70
2017-11-16T18:30:11.036Z,16.40
2017-11-16T18:32:39.495Z,16.37
2017-11-16T18:35:08.356Z,15.95
2017-11-16T18:37:36.562Z,16.15
2017-11-16T18:40:05.619Z,16.50
2017-11-16T18:42:34.385Z,17.00
2017-11-16T18:45:03.859Z,16.00
2017-11-16T18:47:32.283Z,16.10
2017-11-16T18:50:00.625Z,16.92
2017-11-16T18:52:28.773Z,16.37
2017-11-16T18:54:56.353Z,16.90
2017-11-16T18:57:24.602Z,17.10
2017-11-16T18:59:51.812Z,18.83
2017-11-16T19:02:18.755Z,17.20
2017-11-16T19:04:45.738Z,17.10
2017-11-16T19:07:13.230Z,17.58
2017-11-16T19:09:40.161Z,17.58
2017-11-16T19:12:07.122Z,17.00
2017-11-16T19:14:34.334Z,17.67
2017-11-16T19:17:01.561Z,17.70
2017-11-16T19:19:28.681Z,17.50
2017-11-16T19:21:55.761Z,17.10
2017-11-16T19:24:22.758Z,18.37
2017-11-16T19:26:49.967Z,17.10
2017-11-16T19:29:17.407Z,17.77
2017-11-16T19:31:44.925Z,17.30
2017-11-16T19:34:12.146Z,18.42
2017-11-16T19:36:39.302Z,18.48
2017-11-16T19:39:06.810Z,18.65
2017-11-16T19:41:34.180Z,19.20
2017-11-16T19:44:01.398Z,17.93
2017-11-16T19:46:29.663Z,19.40
2017-11-16T19:48:56.643Z,18.90
2017-11-16T19:51:23.576Z,18.70
2017-11-16T19:53:51.130Z,19.70
2017-11-16T19:56:18.066Z,19.77
2017-11-16T19:58:44.976Z,20.00
2017-11-16T20:01:12.304Z,19.53
2017-11-16T20:03:40.021Z,21.37
2017-11-16T20:06:08.111Z,20.57
2017-11-16T20:08:35.006Z,20.15
2017-11-16T20:11:02.417Z,21.42
2017-11-16T20:13:30.877Z,20.77
2017-11-16T20:16:42.367Z,21.45
2017-11-16T20:19:09.261Z,21.98
2017-11-16T20:21:37.366Z,23.02
2017-11-16T20:24:04.938Z,22.70
2017-11-16T20:26:31.878Z,21.73
2017-11-16T20:28:59.336Z,21.73
2017-11-16T20:31:26.909Z,21.55
2017-11-16T20:33:55.332Z,21.40
2017-11-16T20:36:23.887Z,22.43
2017-11-16T20:38:53.225Z,22.15
2017-11-16T20:41:21.057Z,23.48
2017-11-16T20:43:48.900Z,23.03
2017-11-16T20:46:16.112Z,23.58
2017-11-16T20:48:43.167Z,21.90
2017-11-16T20:51:11.377Z,22.70
2017-11-16T20:53:40.017Z,23.10
2017-11-16T20:56:07.737Z,23.50
2017-11-16T20:58:35.777Z,23.20
2017-11-16T21:01:03.531Z,23.25
2017-11-16T21:03:31.123Z,22.58
2017-11-16T21:05:58.726Z,23.70
2017-11-16T21:08:26.466Z,24.10
2017-11-16T21:10:54.477Z,24.37
2017-11-16T21:13:21.625Z,25.90
2017-11-16T21:15:49.290Z,25.08
2017-11-16T21:18:16.737Z,25.73
2017-11-16T21:20:44.591Z,25.30
2017-11-16T21:23:14.366Z,28.00
2017-11-16T21:25:42.628Z,29.75
2017-11-16T21:28:10.885Z,26.92
2017-11-16T21:30:38.952Z,30.48
2017-11-16T21:33:07.311Z,28.10
2017-11-16T21:35:35.755Z,28.23
2017-11-16T21:38:04.093Z,29.52
2017-11-16T21:40:32.691Z,28.83
2017-11-16T21:43:00.988Z,29.67
2017-11-16T21:45:29.478Z,30.42
2017-11-16T21:47:57.342Z,31.33
2017-11-16T21:50:25.883Z,30.15
2017-11-16T21:52:53.392Z,31.70
2017-11-16T21:55:21.143Z,30.35
2017-11-16T21:57:49.198Z,31.65
2017-11-16T22:00:17.401Z,31.75
2017-11-16T22:02:45.479Z,31.50
2017-11-16T22:05:12.861Z,31.30
2017-11-16T22:07:41.039Z,31.37
2017-11-16T22:10:09.065Z,32.70
2017-11-16T22:12:36.739Z,32.00
2017-11-16T22:15:04.796Z,31.87
2017-11-16T22:17:32.709Z,32.20
2017-11-16T22:20:01.504Z,32.30
2017-11-16T22:22:29.615Z,33.40
2017-11-16T22:24:58.483Z,32.28
2017-11-16T22:27:25.766Z,33.45
2017-11-16T22:29:54.060Z,33.30
2017-11-16T22:32:22.086Z,33.15
2017-11-16T22:34:50.029Z,34.10
2017-11-16T22:37:18.220Z,33.95
2017-11-16T22:39:46.343Z,34.47
2017-11-16T22:42:15.047Z,34.65
2017-11-16T22:44:44.459Z,33.28
2017-11-16T22:47:13.264Z,33.17
2017-11-16T22:49:41.647Z,35.00
2017-11-16T22:52:10.265Z,34.93
2017-11-16T22:54:38.410Z,35.28
2017-11-16T22:57:06.347Z,34.80
2017-11-16T22:59:35.077Z,34.85
2017-11-16T23:02:03.033Z,34.88
2017-11-16T23:04:31.149Z,36.53
2017-11-16T23:06:59.404Z,37.92
2017-11-16T23:09:27.633Z,37.15
2017-11-16T23:11:56.197Z,37.03
2017-11-16T23:14:23.956Z,36.30
2017-11-16T23:16:52.553Z,38.83
2017-11-16T23:19:21.265Z,39.60
2017-11-16T23:21:49.512Z,39.10
2017-11-16T23:24:17.284Z,41.28
2017-11-16T23:26:46.789Z,39.38
2017-11-16T23:29:14.600Z,39.55
2017-11-16T23:31:43.233Z,38.65
2017-11-16T23:34:11.312Z,39.03
2017-11-16T23:36:39.553Z,40.75
2017-11-16T23:39:07.817Z,41.58
2017-11-16T23:41:36.066Z,42.53
2017-11-16T23:44:03.985Z,42.62
2017-11-16T23:46:31.873Z,42.30
2017-11-16T23:48:59.863Z,42.90
2017-11-16T23:51:27.932Z,43.63
2017-11-16T23:53:55.859Z,41.50
2017-11-16T23:56:26.203Z,45.67
2017-11-16T23:58:54.875Z,44.40
